createdAt,value
2022-10-07T06:35:24.342Z,10.10
2022-10-07T06:40:20.637Z,10.50
2022-10-07T06:54:52.877Z,11.50
2022-10-07T07:13:15.378Z,12.10
2022-10-07T07:30:59.501Z,12.80
2022-10-07T07:47:17.304Z,13.50
2022-10-07T08:01:45.611Z,14.10
2022-10-07T08:15:48.047Z,14.80
2022-10-07T08:20:41.743Z,15.00
2022-10-07T08:34:15.664Z,15.80
2022-10-07T08:39:09.271Z,16.10
2022-10-07T08:44:17.984Z,16.40
2022-10-07T08:49:17.161Z,16.70
2022-10-07T08:54:14.152Z,17.10
2022-10-07T08:59:21.870Z,17.40
2022-10-07T09:04:29.122Z,17.70
2022-10-07T09:09:27.714Z,18.00
2022-10-07T09:14:29.151Z,18.30
2022-10-07T09:19:31.585Z,18.60
2022-10-07T09:24:32.189Z,18.90
2022-10-07T09:29:28.186Z,19.20
2022-10-07T09:34:26.234Z,19.30
2022-10-07T09:39:24.449Z,19.60
2022-10-07T09:44:27.710Z,19.80
2022-10-07T09:54:45.882Z,20.20
2022-10-07T09:59:40.438Z,20.60
2022-10-07T10:04:37.909Z,20.80
2022-10-07T10:09:32.110Z,21.10
2022-10-07T10:14:38.937Z,21.30
2022-10-07T10:19:36.528Z,21.60
2022-10-07T10:24:49.528Z,21.80
2022-10-07T10:29:53.740Z,22.10
2022-10-07T10:34:56.237Z,22.30
2022-10-07T10:40:07.579Z,22.60
2022-10-07T10:45:18.469Z,22.80
2022-10-07T10:50:19.656Z,23.20
2022-10-07T10:55:29.017Z,23.20
2022-10-07T11:00:25.130Z,23.10
2022-10-07T11:05:23.702Z,22.80
2022-10-07T11:10:22.334Z,22.90
2022-10-07T11:15:21.453Z,23.10
2022-10-07T11:20:22.112Z,23.00
2022-10-07T11:25:26.082Z,22.90
2022-10-07T11:30:22.404Z,22.60
2022-10-07T11:35:27.717Z,22.60
2022-10-07T11:40:29.047Z,22.30
2022-10-07T11:45:28.297Z,22.10
2022-10-07T11:50:28.102Z,22.10
2022-10-07T11:55:26.407Z,22.00
2022-10-07T12:00:28.256Z,22.00
2022-10-07T12:05:59.619Z,22.10
2022-10-07T12:10:56.186Z,22.10
2022-10-07T12:15:51.063Z,22.30
2022-10-07T12:20:59.133Z,22.30
2022-10-07T12:25:56.282Z,22.40
2022-10-07T12:30:52.951Z,22.40
2022-10-07T12:35:54.229Z,22.60
2022-10-07T12:40:56.167Z,23.10
2022-10-07T12:45:53.038Z,24.20
2022-10-07T12:50:49.731Z,25.10
2022-10-07T12:55:50.343Z,25.50
2022-10-07T13:00:57.353Z,26.30
2022-10-07T13:06:26.351Z,26.90
2022-10-07T13:11:47.551Z,27.70
2022-10-07T13:16:50.070Z,28.40
2022-10-07T13:21:48.030Z,29.10
2022-10-07T13:26:45.686Z,29.50
2022-10-07T13:31:39.486Z,30.20
2022-10-07T13:36:43.886Z,30.40
2022-10-07T13:41:39.302Z,31.00
2022-10-07T13:46:36.354Z,31.50
2022-10-07T13:51:35.507Z,31.90
2022-10-07T13:56:33.893Z,31.90
2022-10-07T14:01:29.978Z,32.20
2022-10-07T14:06:39.103Z,32.30
2022-10-07T14:11:32.654Z,32.30
2022-10-07T14:16:26.485Z,32.00
2022-10-07T14:21:20.686Z,32.00
2022-10-07T14:26:17.877Z,32.10
2022-10-07T14:31:36.235Z,32.00
2022-10-07T14:36:29.821Z,32.30
2022-10-07T14:41:27.452Z,32.50
2022-10-07T14:46:23.019Z,32.60
2022-10-07T14:51:19.085Z,32.60
2022-10-07T14:56:15.739Z,32.20
2022-10-07T15:01:10.748Z,31.80
2022-10-07T15:06:04.294Z,31.30
2022-10-07T15:10:57.890Z,29.80
2022-10-07T15:15:51.894Z,28.00
2022-10-07T15:20:47.271Z,27.90
2022-10-07T15:25:42.877Z,26.50
2022-10-07T15:30:39.358Z,25.00
2022-10-07T15:35:36.011Z,24.00
2022-10-07T15:40:31.861Z,23.40
2022-10-07T15:45:27.081Z,23.10
2022-10-07T15:50:21.010Z,22.80
2022-10-07T15:55:16.449Z,22.30
2022-10-07T16:00:13.807Z,22.00
2022-10-07T16:05:09.807Z,21.70
2022-10-07T16:10:03.723Z,21.40
2022-10-07T16:14:57.597Z,21.10
2022-10-07T16:19:53.125Z,21.00
2022-10-07T16:24:46.878Z,20.70
2022-10-07T16:29:57.843Z,20.50
2022-10-07T16:34:53.465Z,20.30
2022-10-07T16:39:47.947Z,20.10
2022-10-07T16:44:41.653Z,19.90
2022-10-07T16:49:36.601Z,19.80
2022-10-07T16:54:32.876Z,19.70
2022-10-07T16:59:27.574Z,19.50
2022-10-07T17:04:21.410Z,19.40
2022-10-07T17:09:17.577Z,19.30
2022-10-07T17:14:16.819Z,19.10
2022-10-07T17:19:16.059Z,19.00
2022-10-07T17:24:13.305Z,19.00
2022-10-07T17:29:12.397Z,18.90
2022-10-07T17:34:08.899Z,18.80
2022-10-07T17:39:03.126Z,18.70
2022-10-07T17:43:59.432Z,18.70
2022-10-07T17:48:55.196Z,18.60
2022-10-07T17:53:51.354Z,18.50
2022-10-07T17:58:47.590Z,18.40
2022-10-07T18:03:44.237Z,18.30
2022-10-07T18:08:43.222Z,18.00
2022-10-07T18:13:55.921Z,17.90
2022-10-07T18:18:54.488Z,17.80
2022-10-07T18:23:48.096Z,17.60
2022-10-07T18:28:44.061Z,17.40
2022-10-07T18:33:39.377Z,17.30
2022-10-07T18:38:33.954Z,17.20
2022-10-07T18:43:28.189Z,17.10
2022-10-07T18:48:26.809Z,17.20
2022-10-07T18:53:23.992Z,17.10
2022-10-07T18:58:19.508Z,17.10
2022-10-07T19:03:13.809Z,17.10
2022-10-07T19:08:09.142Z,17.00
2022-10-07T19:13:21.374Z,17.00
2022-10-07T19:18:15.799Z,16.90
2022-10-07T19:23:11.929Z,17.00
2022-10-07T19:28:06.332Z,17.00
